Time;durP1;ratioP1;P1;durP2;ratioP2;P2;SDS_P1;SDS_P2;PMS_P1;PMS_P2;Temp;Humidity;BMP_temperature;BMP_pressure;BME280_temperature;BME280_humidity;BME280_pressure;Samples;Min_cycle;Max_cycle;Signal;HPM_P1;HPM_P2
2022/11/26 00:00:52;;;;;;;11.70;7.25;;;;;;;12.86;100.00;97170.22;5004275;28;20604;-43
2022/11/26 00:03:21;;;;;;;12.07;6.63;;;;;;;12.25;100.00;97175.78;5000793;28;20074;-43
2022/11/26 00:05:51;;;;;;;12.15;7.18;;;;;;;12.56;100.00;97180.00;5008667;28;20142;-43
2022/11/26 00:08:21;;;;;;;16.88;7.47;;;;;;;12.55;100.00;97177.50;5002945;28;20081;-45
2022/11/26 00:10:51;;;;;;;12.30;6.82;;;;;;;12.57;100.00;97181.69;4996417;28;20513;-42
2022/11/26 00:13:21;;;;;;;12.43;7.07;;;;;;;12.58;100.00;97169.28;5000184;28;20090;-43
2022/11/26 00:15:49;;;;;;;13.55;7.25;;;;;;;12.85;100.00;97173.03;5004118;28;20104;-43
2022/11/26 00:18:22;;;;;;;11.88;7.13;;;;;;;12.93;100.00;97170.50;4994783;28;20487;-44
2022/11/26 00:20:53;;;;;;;14.60;8.07;;;;;;;13.10;100.00;97175.06;4996641;28;20084;-50
2022/11/26 00:23:23;;;;;;;11.90;7.40;;;;;;;12.65;100.00;97175.69;5003509;28;20053;-42
2022/11/26 00:25:54;;;;;;;15.85;7.20;;;;;;;13.06;100.00;97171.88;4996273;28;20077;-44
2022/11/26 00:28:30;;;;;;;12.45;7.50;;;;;;;13.06;100.00;97173.69;4996652;28;20089;-48
2022/11/26 00:31:00;;;;;;;10.50;7.82;;;;;;;13.18;100.00;97177.00;4991092;28;20085;-44
2022/11/26 00:33:31;;;;;;;10.90;7.00;;;;;;;13.10;100.00;97179.53;5001442;28;20085;-48
2022/11/26 00:36:03;;;;;;;13.35;7.72;;;;;;;13.16;100.00;97176.31;5000202;28;20090;-46
2022/11/26 00:38:31;;;;;;;13.52;7.10;;;;;;;13.15;100.00;97177.31;4995358;28;20504;-49
2022/11/26 00:41:00;;;;;;;11.45;7.22;;;;;;;12.95;100.00;97197.69;5009076;28;20520;-44
2022/11/26 00:43:28;;;;;;;12.88;7.35;;;;;;;12.85;100.00;97202.97;5000764;28;20636;-45
2022/11/26 00:45:56;;;;;;;12.77;7.72;;;;;;;13.05;100.00;97199.34;4999254;28;20085;-45
2022/11/26 00:48:24;;;;;;;14.45;7.55;;;;;;;13.24;100.00;97195.00;5002021;28;20077;-44
2022/11/26 00:50:54;;;;;;;13.38;7.43;;;;;;;13.39;100.00;97198.06;4997072;28;20533;-44
2022/11/26 00:53:24;;;;;;;14.43;7.57;;;;;;;12.97;100.00;97204.50;5005831;28;20081;-48
2022/11/26 00:55:52;;;;;;;12.75;7.68;;;;;;;13.50;100.00;97205.81;4996361;28;20354;-43
2022/11/26 00:58:24;;;;;;;12.68;7.25;;;;;;;13.46;100.00;97209.75;4999363;28;20081;-50
2022/11/26 01:00:52;;;;;;;13.38;7.57;;;;;;;13.46;100.00;97207.09;5012824;28;20088;-43
2022/11/26 01:03:20;;;;;;;13.48;7.25;;;;;;;13.22;100.00;97211.03;5003135;28;20078;-48
2022/11/26 01:05:50;;;;;;;12.75;7.28;;;;;;;13.25;100.00;97212.59;5003735;28;20477;-48
2022/11/26 01:08:26;;;;;;;14.70;7.13;;;;;;;12.94;100.00;97228.63;5012272;28;20088;-47
2022/11/26 01:10:54;;;;;;;12.75;6.68;;;;;;;12.58;100.00;97230.97;5006206;28;20540;-43
2022/11/26 01:13:23;;;;;;;12.25;7.05;;;;;;;12.75;100.00;97225.97;5010892;28;20085;-44
2022/11/26 01:15:51;;;;;;;12.30;6.85;;;;;;;12.71;100.00;97230.72;5011711;28;20089;-45
2022/11/26 01:18:21;;;;;;;11.43;6.43;;;;;;;12.47;100.00;97224.97;5004901;28;20093;-51
2022/11/26 01:20:50;;;;;;;10.18;6.30;;;;;;;12.92;100.00;97233.22;5009247;28;20100;-44
2022/11/26 01:23:20;;;;;;;8.90;6.20;;;;;;;13.05;100.00;97233.75;5001294;28;20154;-50
2022/11/26 01:25:49;;;;;;;12.35;6.60;;;;;;;13.10;100.00;97233.31;5012782;28;20080;-45
2022/11/26 01:28:18;;;;;;;10.68;7.05;;;;;;;13.07;100.00;97236.25;5002653;28;20090;-44
2022/11/26 01:30:47;;;;;;;11.45;6.57;;;;;;;13.33;100.00;97235.72;5006080;28;20104;-47
2022/11/26 01:33:15;;;;;;;12.07;6.90;;;;;;;13.24;100.00;97242.69;5011842;28;20085;-44
2022/11/26 01:35:43;;;;;;;13.63;7.18;;;;;;;13.35;100.00;97231.09;5004076;28;20081;-43
2022/11/26 01:38:13;;;;;;;11.85;6.47;;;;;;;13.15;100.00;97238.22;5010374;28;20093;-43
2022/11/26 01:40:55;;;;;;;11.15;6.28;;;;;;;13.28;100.00;97244.94;4999043;28;20078;-45
2022/11/26 01:43:26;;;;;;;10.27;6.70;;;;;;;12.92;100.00;97241.16;4998519;28;20088;-45
2022/11/26 01:45:55;;;;;;;11.23;6.47;;;;;;;12.88;100.00;97237.13;5009905;28;20532;-48
2022/11/26 01:48:27;;;;;;;12.55;6.45;;;;;;;12.61;100.00;97236.97;5011931;28;20073;-44
2022/11/26 01:50:58;;;;;;;13.30;6.10;;;;;;;12.62;100.00;97241.28;5004498;28;20088;-45
2022/11/26 01:53:31;;;;;;;10.80;6.22;;;;;;;12.69;100.00;97248.53;5007406;28;20093;-43
2022/11/26 01:56:04;;;;;;;16.50;6.03;;;;;;;12.52;100.00;97243.91;5005168;28;21146;-47
2022/11/26 01:58:35;;;;;;;11.63;5.88;;;;;;;12.86;100.00;97249.66;5004888;28;20089;-51
2022/11/26 02:01:07;;;;;;;15.30;6.22;;;;;;;12.71;100.00;97257.16;5000861;28;20081;-43
2022/11/26 02:03:39;;;;;;;9.20;5.50;;;;;;;12.20;100.00;97268.75;5009575;28;20092;-46
2022/11/26 02:06:13;;;;;;;10.93;5.85;;;;;;;12.55;100.00;97259.50;5008019;28;20484;-46
2022/11/26 02:08:42;;;;;;;15.05;6.53;;;;;;;12.95;100.00;97262.06;4996936;28;20066;-44
2022/11/26 02:11:17;;;;;;;12.88;6.00;;;;;;;12.55;100.00;97262.16;4998846;28;20201;-46
2022/11/26 02:13:47;;;;;;;12.23;6.22;;;;;;;12.49;100.00;97262.69;4999294;28;20089;-45
2022/11/26 02:16:23;;;;;;;10.23;6.20;;;;;;;12.56;100.00;97271.78;5010162;28;20521;-44
2022/11/26 02:19:00;;;;;;;8.23;5.25;;;;;;;12.54;100.00;97271.91;5004704;28;20085;-46
2022/11/26 02:21:29;;;;;;;12.88;6.85;;;;;;;12.77;100.00;97271.69;5008644;28;20097;-46
2022/11/26 02:24:22;;;;;;;9.55;5.72;;;;;;;12.83;100.00;97271.09;5001109;28;20084;-44
2022/11/26 02:27:24;;;;;;;12.05;6.03;;;;;;;12.78;100.00;97270.69;4999624;28;20088;-44
2022/11/26 02:30:03;;;;;;;12.50;5.63;;;;;;;12.65;100.00;97275.41;5006843;28;20050;-47
2022/11/26 02:32:37;;;;;;;13.38;5.82;;;;;;;12.63;100.00;97280.00;5008165;28;20089;-44
2022/11/26 02:35:10;;;;;;;13.80;5.78;;;;;;;12.98;100.00;97284.78;5004164;28;20092;-46
2022/11/26 02:37:42;;;;;;;12.15;6.00;;;;;;;12.47;100.00;97280.53;5004047;28;20093;-44
2022/11/26 02:40:11;;;;;;;11.38;5.55;;;;;;;12.77;100.00;97283.09;4998853;28;20097;-44
2022/11/26 02:42:39;;;;;;;10.10;5.72;;;;;;;12.27;100.00;97283.13;5008973;28;20081;-43
2022/11/26 02:45:12;;;;;;;11.48;5.60;;;;;;;12.15;100.00;97278.06;5005220;28;20097;-47
2022/11/26 02:47:41;;;;;;;9.70;5.50;;;;;;;12.32;100.00;97274.81;4994743;28;20500;-43
2022/11/26 02:50:13;;;;;;;9.82;5.63;;;;;;;12.29;100.00;97277.72;5010763;28;20558;-50
2022/11/26 02:52:42;;;;;;;8.55;5.03;;;;;;;12.33;100.00;97273.81;5007394;28;20089;-44
2022/11/26 02:55:12;;;;;;;11.27;5.13;;;;;;;12.29;100.00;97275.91;5003414;28;20085;-43
2022/11/26 02:57:44;;;;;;;10.73;5.32;;;;;;;12.05;100.00;97278.06;5004467;28;20501;-43
2022/11/26 03:00:15;;;;;;;6.95;4.97;;;;;;;12.07;100.00;97289.31;5008236;28;20078;-47
2022/11/26 03:02:46;;;;;;;6.82;5.30;;;;;;;11.85;100.00;97293.00;5003616;28;20081;-45
2022/11/26 03:05:17;;;;;;;10.32;4.97;;;;;;;11.86;100.00;97302.59;5009220;28;20081;-43
2022/11/26 03:07:47;;;;;;;10.73;5.35;;;;;;;11.78;100.00;97294.47;4998143;28;20124;-44
2022/11/26 03:10:19;;;;;;;10.85;4.93;;;;;;;11.79;100.00;97302.25;5010170;28;20085;-47
2022/11/26 03:12:47;;;;;;;9.60;5.32;;;;;;;11.84;100.00;97304.53;5008374;28;20460;-43
2022/11/26 03:15:17;;;;;;;8.52;5.47;;;;;;;11.95;100.00;97307.09;5003726;28;20104;-43
2022/11/26 03:17:45;;;;;;;6.47;5.00;;;;;;;11.99;100.00;97303.19;4997658;28;20073;-49
2022/11/26 03:20:14;;;;;;;8.07;5.15;;;;;;;11.70;100.00;97303.03;5010225;28;20077;-46
2022/11/26 03:22:42;;;;;;;9.07;5.32;;;;;;;11.98;100.00;97298.91;5001121;28;20084;-43
2022/11/26 03:25:11;;;;;;;10.02;5.30;;;;;;;11.94;100.00;97302.78;5010097;28;20085;-48
2022/11/26 03:27:39;;;;;;;7.60;5.32;;;;;;;11.83;100.00;97314.22;5010019;28;20464;-48
2022/11/26 03:30:08;;;;;;;8.73;5.10;;;;;;;11.85;100.00;97307.03;4998421;28;20090;-44
2022/11/26 03:32:38;;;;;;;11.23;5.10;;;;;;;11.85;100.00;97316.78;4993403;28;20169;-43
2022/11/26 03:35:07;;;;;;;8.00;4.63;;;;;;;11.97;100.00;97304.31;5006516;28;20108;-42
2022/11/26 03:37:36;;;;;;;11.48;5.07;;;;;;;12.03;100.00;97311.72;5003045;28;20560;-45
2022/11/26 03:40:05;;;;;;;8.60;5.35;;;;;;;11.94;100.00;97309.84;5004450;28;20085;-43
2022/11/26 03:42:33;;;;;;;9.47;5.30;;;;;;;11.83;100.00;97308.94;5009339;28;20465;-47
2022/11/26 03:45:02;;;;;;;9.75;5.13;;;;;;;11.76;100.00;97318.34;5009466;28;20081;-46
2022/11/26 03:47:30;;;;;;;7.43;4.85;;;;;;;11.72;100.00;97311.66;5003259;28;20089;-45
2022/11/26 03:50:00;;;;;;;9.82;5.03;;;;;;;11.71;100.00;97311.81;5001419;28;20077;-45
2022/11/26 03:52:28;;;;;;;9.20;5.07;;;;;;;11.66;100.00;97317.47;5005313;28;20093;-46
2022/11/26 03:54:56;;;;;;;9.32;5.22;;;;;;;11.28;100.00;97323.31;5008914;28;20085;-49
2022/11/26 03:57:25;;;;;;;9.77;5.13;;;;;;;11.70;100.00;97323.31;4996701;28;20082;-43
2022/11/26 03:59:53;;;;;;;7.97;5.10;;;;;;;11.62;100.00;97324.81;5006580;28;20081;-45
2022/11/26 04:02:21;;;;;;;10.18;5.70;;;;;;;11.73;100.00;97334.47;4993960;28;20082;-44
2022/11/26 04:04:50;;;;;;;9.02;4.57;;;;;;;11.58;100.00;97336.59;5000093;28;20084;-42
2022/11/26 04:07:19;;;;;;;10.68;5.18;;;;;;;11.65;100.00;97335.13;5004418;28;20073;-46
2022/11/26 04:09:48;;;;;;;9.47;5.27;;;;;;;12.01;100.00;97334.78;5002336;28;20497;-46
2022/11/26 04:12:16;;;;;;;9.10;5.43;;;;;;;11.96;100.00;97337.84;4998114;28;20458;-44
2022/11/26 04:14:45;;;;;;;8.65;4.85;;;;;;;11.94;100.00;97342.44;5006059;28;20092;-44
2022/11/26 04:17:13;;;;;;;10.55;5.18;;;;;;;11.89;100.00;97344.63;5002933;28;20177;-44
2022/11/26 04:19:41;;;;;;;12.15;5.57;;;;;;;12.15;100.00;97337.09;5005793;28;20490;-47
2022/11/26 04:22:10;;;;;;;8.27;5.22;;;;;;;12.11;100.00;97347.09;5003106;28;20078;-49
2022/11/26 04:24:39;;;;;;;10.00;5.75;;;;;;;12.07;100.00;97352.78;5004462;28;20092;-47
2022/11/26 04:27:08;;;;;;;11.32;6.50;;;;;;;12.19;100.00;97356.19;5009845;28;20088;-46
2022/11/26 04:29:36;;;;;;;9.45;5.72;;;;;;;12.04;100.00;97358.31;5005221;28;20089;-45
2022/11/26 04:32:05;;;;;;;9.40;5.90;;;;;;;11.92;100.00;97368.16;4998301;28;20081;-44
2022/11/26 04:34:34;;;;;;;11.57;5.72;;;;;;;11.51;100.00;97368.97;5000168;28;20567;-43
2022/11/26 04:37:02;;;;;;;9.15;5.30;;;;;;;11.86;100.00;97364.22;5002657;28;20085;-43
2022/11/26 04:39:30;;;;;;;9.73;5.20;;;;;;;11.82;100.00;97370.69;4999092;28;20533;-46
2022/11/26 04:42:00;;;;;;;9.40;5.53;;;;;;;11.94;100.00;97368.88;5009149;28;20074;-48
2022/11/26 04:44:28;;;;;;;12.73;5.80;;;;;;;11.78;100.00;97379.03;4999003;28;20094;-46
2022/11/26 04:46:57;;;;;;;11.15;5.40;;;;;;;12.19;100.00;97380.81;5001026;28;20495;-44
2022/11/26 04:49:25;;;;;;;14.60;5.80;;;;;;;12.36;100.00;97384.66;5002883;28;20081;-48
2022/11/26 04:51:54;;;;;;;10.70;5.63;;;;;;;11.95;100.00;97396.13;5003800;28;20078;-43
2022/11/26 04:54:22;;;;;;;8.85;5.57;;;;;;;12.24;100.00;97388.34;5001249;28;20082;-47
2022/11/26 04:56:50;;;;;;;10.23;5.65;;;;;;;12.03;100.00;97394.50;5004360;28;20077;-45
2022/11/26 04:59:20;;;;;;;9.88;5.60;;;;;;;12.32;100.00;97393.81;4996449;28;20090;-43
2022/11/26 05:01:48;;;;;;;9.13;5.50;;;;;;;12.37;100.00;97391.59;4995411;28;20465;-46
2022/11/26 05:04:16;;;;;;;10.50;5.85;;;;;;;12.40;100.00;97398.44;5000263;28;20176;-43
2022/11/26 05:06:45;;;;;;;9.60;5.45;;;;;;;12.62;100.00;97400.88;5007257;28;20091;-43
2022/11/26 05:09:13;;;;;;;11.18;6.05;;;;;;;12.58;100.00;97407.41;5002455;28;20105;-42
2022/11/26 05:11:41;;;;;;;10.73;5.93;;;;;;;12.57;100.00;97403.94;5008924;28;20088;-43
2022/11/26 05:14:10;;;;;;;13.35;6.60;;;;;;;12.62;100.00;97406.19;5006359;28;20081;-46
2022/11/26 05:16:39;;;;;;;10.57;6.00;;;;;;;12.98;100.00;97410.06;5008743;28;20112;-48
2022/11/26 05:19:08;;;;;;;15.27;6.13;;;;;;;12.64;100.00;97420.13;5005293;28;20118;-45
2022/11/26 05:21:36;;;;;;;11.05;5.45;;;;;;;12.58;100.00;97412.72;5007627;28;20500;-43
2022/11/26 05:24:05;;;;;;;11.15;6.05;;;;;;;12.62;100.00;97419.41;4996028;28;20086;-42
2022/11/26 05:26:33;;;;;;;9.52;5.63;;;;;;;12.40;100.00;97427.53;4996258;28;20104;-46
2022/11/26 05:29:01;;;;;;;12.85;5.97;;;;;;;12.36;100.00;97429.63;5005949;28;20085;-46
2022/11/26 05:31:30;;;;;;;12.68;6.43;;;;;;;12.51;100.00;97430.09;5001418;28;20073;-45
2022/11/26 05:34:00;;;;;;;15.73;6.35;;;;;;;12.29;100.00;97437.25;5002880;28;20077;-46
2022/11/26 05:36:28;;;;;;;12.37;6.20;;;;;;;12.18;100.00;97431.16;5005494;28;20104;-46
2022/11/26 05:39:21;;;;;;;10.27;5.60;;;;;;;12.23;100.00;97439.56;5001286;28;21402;-46
2022/11/26 05:41:49;;;;;;;11.35;6.38;;;;;;;12.24;100.00;97434.13;4997771;28;20049;-43
2022/11/26 05:44:18;;;;;;;12.68;6.53;;;;;;;12.16;100.00;97441.88;5002361;28;20096;-48
2022/11/26 05:46:46;;;;;;;11.00;6.00;;;;;;;12.35;100.00;97443.78;5006740;28;20042;-46
2022/11/26 05:49:16;;;;;;;12.75;6.03;;;;;;;12.08;100.00;97453.13;5007062;28;20513;-43
2022/11/26 05:51:45;;;;;;;12.50;6.50;;;;;;;12.73;100.00;97447.56;5006268;28;20120;-44
2022/11/26 05:54:14;;;;;;;10.93;6.32;;;;;;;12.25;100.00;97456.13;5008816;28;20118;-44
2022/11/26 05:56:43;;;;;;;10.20;6.53;;;;;;;12.55;100.00;97448.22;5008607;28;20077;-45
2022/11/26 05:59:11;;;;;;;11.73;6.57;;;;;;;12.41;100.00;97453.00;5008316;28;20092;-48
2022/11/26 06:01:39;;;;;;;11.23;6.22;;;;;;;12.74;100.00;97457.22;5010808;28;20046;-45
2022/11/26 06:04:08;;;;;;;10.90;6.03;;;;;;;12.26;100.00;97460.47;5011427;28;20081;-44
2022/11/26 06:06:38;;;;;;;11.75;6.50;;;;;;;12.30;100.00;97460.06;5010983;28;20508;-45
2022/11/26 06:09:06;;;;;;;13.75;6.80;;;;;;;12.37;100.00;97460.38;5009258;28;20061;-43
2022/11/26 06:11:34;;;;;;;10.50;6.10;;;;;;;12.07;100.00;97466.47;5006093;28;20126;-48
2022/11/26 06:14:03;;;;;;;12.77;6.70;;;;;;;12.30;100.00;97460.06;5010595;28;20511;-43
2022/11/26 06:16:31;;;;;;;11.73;6.53;;;;;;;12.15;100.00;97473.72;5008559;28;20084;-43
2022/11/26 06:18:59;;;;;;;11.05;6.90;;;;;;;12.48;100.00;97464.75;5011282;28;20082;-45
2022/11/26 06:21:28;;;;;;;11.63;6.03;;;;;;;12.29;100.00;97473.44;5008564;28;20073;-43
2022/11/26 06:23:57;;;;;;;10.10;6.15;;;;;;;12.27;100.00;97475.34;5011200;28;20800;-43
2022/11/26 06:26:26;;;;;;;;;;;;;;;11.93;100.00;97477.34;5011308;28;20096;-46
2022/11/26 06:28:55;;;;;;;10.20;5.68;;;;;;;11.73;100.00;97485.09;5009944;28;20384;-46
2022/11/26 06:31:23;;;;;;;16.02;6.53;;;;;;;11.60;100.00;97484.44;5010941;28;20081;-46
2022/11/26 06:33:53;;;;;;;13.50;6.43;;;;;;;11.80;100.00;97477.50;5006989;28;20088;-43
2022/11/26 06:36:22;;;;;;;12.88;6.68;;;;;;;11.66;100.00;97483.91;5006135;28;20142;-45
2022/11/26 06:38:50;;;;;;;11.35;6.40;;;;;;;11.85;100.00;97483.28;5003300;28;20086;-43
2022/11/26 06:41:20;;;;;;;10.55;5.88;;;;;;;11.67;100.00;97482.13;5002140;28;20476;-43
2022/11/26 06:43:48;;;;;;;11.90;6.53;;;;;;;11.71;100.00;97486.19;5001745;28;20082;-45
2022/11/26 06:46:16;;;;;;;10.65;6.07;;;;;;;12.18;100.00;97486.69;5007380;28;20524;-44
2022/11/26 06:48:44;;;;;;;13.60;6.20;;;;;;;11.81;100.00;97495.06;5007401;28;20077;-43
2022/11/26 06:51:15;;;;;;;13.38;6.05;;;;;;;11.65;100.00;97500.75;5006342;28;20532;-43
2022/11/26 06:53:43;;;;;;;7.25;5.53;;;;;;;11.33;100.00;97498.09;5010618;28;20081;-44
2022/11/26 06:56:13;;;;;;;11.30;6.10;;;;;;;11.88;100.00;97509.47;5001858;28;20080;-43
2022/11/26 06:58:48;;;;;;;10.32;6.65;;;;;;;11.93;100.00;97509.06;5007530;28;20480;-50
2022/11/26 07:01:18;;;;;;;13.98;6.32;;;;;;;12.04;100.00;97509.00;5002472;28;20141;-42
2022/11/26 07:03:47;;;;;;;14.55;6.35;;;;;;;12.62;100.00;97516.47;5003365;28;20070;-48
2022/11/26 07:06:16;;;;;;;11.25;6.15;;;;;;;12.11;100.00;97520.75;5002576;28;20081;-43
2022/11/26 07:08:45;;;;;;;8.82;6.07;;;;;;;12.00;100.00;97524.28;5004295;28;20078;-48
2022/11/26 07:11:14;;;;;;;10.77;6.13;;;;;;;12.42;100.00;97526.97;5001295;28;20097;-43
2022/11/26 07:13:42;;;;;;;11.68;5.78;;;;;;;12.43;100.00;97526.00;5005636;28;20092;-44
2022/11/26 07:16:13;;;;;;;10.70;6.00;;;;;;;12.64;100.00;97541.03;5010601;28;20081;-44
2022/11/26 07:18:41;;;;;;;;;;;;;;;12.59;100.00;97542.25;5011114;28;20085;-47
2022/11/26 07:21:11;;;;;;;8.65;5.75;;;;;;;12.76;100.00;97543.44;5010173;28;19929;-44
2022/11/26 07:23:40;;;;;;;11.73;5.17;;;;;;;12.58;100.00;97551.16;5006981;28;20089;-42
2022/11/26 07:26:08;;;;;;;10.25;5.85;;;;;;;12.56;100.00;97549.63;4997386;28;20484;-48
2022/11/26 07:28:37;;;;;;;11.40;5.60;;;;;;;12.37;100.00;97554.78;5003778;28;20092;-42
2022/11/26 07:31:07;;;;;;;8.38;5.18;;;;;;;12.56;100.00;97554.91;5010307;28;20082;-46
2022/11/26 07:33:45;;;;;;;11.55;5.75;;;;;;;12.96;100.00;97554.97;5000979;28;20089;-42
2022/11/26 07:36:16;;;;;;;9.52;5.50;;;;;;;13.02;100.00;97548.31;5001540;28;20080;-45
2022/11/26 07:38:44;;;;;;;9.52;5.53;;;;;;;13.04;100.00;97552.50;5005538;28;20104;-43
2022/11/26 07:41:15;;;;;;;12.65;6.07;;;;;;;13.37;100.00;97552.38;5003844;28;20096;-45
2022/11/26 07:43:43;;;;;;;11.38;5.40;;;;;;;13.45;100.00;97549.88;5009508;28;20089;-47
2022/11/26 07:46:14;;;;;;;9.95;5.43;;;;;;;13.60;100.00;97558.28;4998090;28;20089;-49
2022/11/26 07:48:43;;;;;;;;;;;;;;;13.61;100.00;97546.72;5003593;28;20085;-46
2022/11/26 07:51:16;;;;;;;8.50;5.20;;;;;;;13.71;100.00;97555.50;5010388;28;19952;-45
2022/11/26 07:53:44;;;;;;;6.95;4.95;;;;;;;13.85;100.00;97554.28;5001350;28;20085;-44
2022/11/26 07:56:13;;;;;;;7.50;5.18;;;;;;;13.94;100.00;97558.75;4997844;28;20077;-44
2022/11/26 07:58:41;;;;;;;9.70;5.75;;;;;;;13.99;100.00;97564.47;5004400;28;20097;-44
2022/11/26 08:01:11;;;;;;;10.07;5.22;;;;;;;13.86;100.00;97563.91;5009405;28;20085;-47
2022/11/26 08:03:40;;;;;;;8.40;5.60;;;;;;;13.88;100.00;97561.97;5008865;28;20634;-44
2022/11/26 08:06:12;;;;;;;9.13;5.13;;;;;;;13.95;100.00;97565.72;5008779;28;20488;-45
2022/11/26 08:08:41;;;;;;;8.23;4.72;;;;;;;13.77;100.00;97569.06;5002974;28;20081;-44
2022/11/26 08:11:15;;;;;;;8.57;4.60;;;;;;;13.30;100.00;97573.25;4998643;28;20122;-45
2022/11/26 08:13:45;;;;;;;9.45;4.50;;;;;;;13.41;100.00;97574.97;5008998;28;20049;-47
2022/11/26 08:16:13;;;;;;;10.63;4.65;;;;;;;13.70;100.00;97581.19;5010103;28;20499;-49
2022/11/26 08:18:42;;;;;;;7.50;4.88;;;;;;;13.82;100.00;97575.75;5009568;28;20073;-45
2022/11/26 08:21:11;;;;;;;8.07;5.05;;;;;;;13.96;100.00;97568.22;5009284;28;20480;-43
2022/11/26 08:23:40;;;;;;;10.15;5.22;;;;;;;14.07;100.00;97577.88;5009099;28;20457;-43
2022/11/26 08:26:10;;;;;;;10.07;5.13;;;;;;;13.83;100.00;97575.59;5003216;28;20175;-45
2022/11/26 08:28:55;;;;;;;9.48;4.80;;;;;;;14.33;100.00;97572.00;5001457;28;20077;-42
2022/11/26 08:31:23;;;;;;;11.70;4.80;;;;;;;14.22;100.00;97576.50;5009393;28;20123;-44
2022/11/26 08:33:52;;;;;;;8.63;4.50;;;;;;;13.96;100.00;97580.66;5006906;28;20085;-42
2022/11/26 08:36:21;;;;;;;7.85;4.90;;;;;;;13.60;100.00;97587.44;5002388;28;20111;-45
2022/11/26 08:38:50;;;;;;;10.43;5.33;;;;;;;13.73;100.00;97580.91;4999334;28;20092;-45
2022/11/26 08:41:18;;;;;;;8.68;4.85;;;;;;;13.26;100.00;97595.69;5002930;28;20089;-47
2022/11/26 08:43:46;;;;;;;9.32;4.90;;;;;;;13.53;100.00;97590.63;5006590;28;20096;-43
2022/11/26 08:46:35;;;;;;;9.50;4.47;;;;;;;13.76;100.00;97587.75;5002974;28;20097;-48
2022/11/26 08:49:04;;;;;;;9.82;4.63;;;;;;;13.61;100.00;97589.13;5005685;28;20623;-45
2022/11/26 08:51:33;;;;;;;9.05;4.78;;;;;;;13.94;100.00;97591.41;5008231;28;20093;-45
2022/11/26 08:54:02;;;;;;;8.47;5.87;;;;;;;14.19;100.00;97586.53;5000504;28;20092;-46
2022/11/26 08:56:30;;;;;;;7.45;4.60;;;;;;;13.35;100.00;97589.59;5000458;28;20108;-43
2022/11/26 08:58:59;;;;;;;7.22;4.68;;;;;;;13.74;100.00;97601.16;5002241;28;20089;-45
2022/11/26 09:01:29;;;;;;;7.10;4.30;;;;;;;13.23;100.00;97598.56;4998980;28;20083;-44
2022/11/26 09:03:59;;;;;;;8.98;4.45;;;;;;;13.63;100.00;97601.25;5006270;28;20125;-48
2022/11/26 09:06:29;;;;;;;8.87;3.97;;;;;;;13.73;100.00;97603.94;5005012;28;20081;-46
2022/11/26 09:09:16;;;;;;;7.65;3.97;;;;;;;12.99;100.00;97615.59;5006737;28;20507;-45
2022/11/26 09:11:48;;;;;;;5.30;3.38;;;;;;;13.29;100.00;97622.75;5008640;28;20089;-45
2022/11/26 09:14:18;;;;;;;7.85;3.55;;;;;;;13.14;100.00;97618.75;5007868;28;20070;-42
2022/11/26 09:16:46;;;;;;;7.70;4.13;;;;;;;12.98;100.00;97621.88;5004216;28;20154;-43
2022/11/26 09:19:15;;;;;;;7.05;3.90;;;;;;;13.45;100.00;97616.94;4997340;28;20081;-44
2022/11/26 09:21:43;;;;;;;6.88;4.00;;;;;;;13.46;100.00;97623.94;5006730;28;20077;-46
2022/11/26 09:24:13;;;;;;;8.02;3.53;;;;;;;13.51;100.00;97621.72;5011109;28;20077;-44
2022/11/26 09:26:42;;;;;;;9.88;4.10;;;;;;;13.31;100.00;97630.56;5008333;28;20081;-44
2022/11/26 09:29:12;;;;;;;6.45;3.80;;;;;;;13.45;100.00;97627.53;5012481;28;20153;-43
2022/11/26 09:31:40;;;;;;;;;;;;;;;13.39;100.00;97636.06;5012981;28;20470;-44
2022/11/26 09:34:29;;;;;;;5.00;3.60;;;;;;;12.93;100.00;97641.75;5003550;28;19961;-47
2022/11/26 09:36:57;;;;;;;7.18;3.45;;;;;;;13.13;100.00;97640.06;5009475;28;20470;-48
2022/11/26 09:39:27;;;;;;;12.18;4.00;;;;;;;13.01;100.00;97647.28;5006471;28;20762;-44
2022/11/26 09:42:02;;;;;;;5.80;3.50;;;;;;;13.11;100.00;97649.94;5005210;28;20712;-43
2022/11/26 09:44:43;;;;;;;7.97;3.97;;;;;;;13.18;100.00;97651.09;5012518;28;20092;-49
2022/11/26 09:47:15;;;;;;;5.15;3.38;;;;;;;13.43;100.00;97656.00;5007151;28;20092;-43
2022/11/26 09:49:53;;;;;;;9.02;3.80;;;;;;;13.61;100.00;97648.25;5004722;28;20082;-43
2022/11/26 09:52:24;;;;;;;11.05;4.40;;;;;;;13.75;100.00;97647.88;5002833;28;20069;-44
2022/11/26 09:55:00;;;;;;;9.63;4.57;;;;;;;13.38;100.00;97650.25;5008278;28;20085;-44
2022/11/26 09:57:33;;;;;;;9.18;4.07;;;;;;;13.17;100.00;97652.06;5004657;28;20089;-44
2022/11/26 10:00:26;;;;;;;7.80;4.30;;;;;;;13.29;100.00;97648.41;5011860;28;20528;-45
2022/11/26 10:02:55;;;;;;;7.65;4.13;;;;;;;13.75;100.00;97647.06;5008158;28;20066;-42
2022/11/26 10:05:39;;;;;;;11.13;5.20;;;;;;;13.63;100.00;97648.16;5007431;28;20081;-47
2022/11/26 10:08:22;;;;;;;12.07;4.55;;;;;;;13.93;100.00;97645.41;5011038;28;20543;-47
2022/11/26 10:10:55;;;;;;;8.48;3.63;;;;;;;13.41;100.00;97649.16;4995940;28;20086;-44
2022/11/26 10:13:41;;;;;;;7.65;3.92;;;;;;;13.05;100.00;97656.63;5011711;28;20084;-47
2022/11/26 10:16:15;;;;;;;13.77;4.68;;;;;;;12.92;100.00;97648.88;5003044;28;20077;-44
2022/11/26 10:18:48;;;;;;;8.95;4.70;;;;;;;13.21;100.00;97637.59;5002940;28;20147;-43
2022/11/26 10:21:20;;;;;;;10.15;4.05;;;;;;;13.27;100.00;97637.94;5000226;28;20082;-43
2022/11/26 10:24:11;;;;;;;6.45;3.90;;;;;;;13.57;100.00;97638.91;5004670;28;20096;-48
2022/11/26 10:26:40;;;;;;;9.18;3.83;;;;;;;13.30;100.00;97636.84;5009522;28;20085;-46
2022/11/26 10:29:21;;;;;;;6.60;4.05;;;;;;;13.22;100.00;97641.94;5004834;28;20073;-45
2022/11/26 10:31:53;;;;;;;4.78;2.88;;;;;;;12.87;100.00;97644.94;5000591;28;20501;-43
2022/11/26 10:34:26;;;;;;;5.88;3.03;;;;;;;12.84;100.00;97638.09;4999880;28;20149;-42
2022/11/26 10:36:59;;;;;;;9.98;3.88;;;;;;;12.88;100.00;97636.88;5011550;28;20089;-47
2022/11/26 10:39:28;;;;;;;8.95;3.97;;;;;;;13.45;100.00;97637.31;5006777;28;20111;-48
2022/11/26 10:41:57;;;;;;;7.10;3.80;;;;;;;13.52;100.00;97636.66;5011069;28;20559;-45
2022/11/26 10:44:38;;;;;;;8.25;4.07;;;;;;;13.50;100.00;97641.25;4996363;28;20069;-42
2022/11/26 10:47:25;;;;;;;7.97;3.58;;;;;;;13.43;100.00;97634.81;4999961;28;20085;-44
2022/11/26 10:49:55;;;;;;;7.32;3.90;;;;;;;13.56;100.00;97644.31;5010560;28;20104;-44
2022/11/26 10:52:26;;;;;;;8.80;4.05;;;;;;;13.84;100.00;97632.16;4999740;28;20093;-44
2022/11/26 10:55:09;;;;;;;10.93;4.13;;;;;;;14.02;100.00;97625.19;5004298;28;20092;-46
2022/11/26 10:57:43;;;;;;;9.80;3.55;;;;;;;13.97;100.00;97628.28;5004552;28;20081;-44
2022/11/26 11:00:36;;;;;;;7.95;3.78;;;;;;;14.01;100.00;97623.53;5007694;28;20540;-45
2022/11/26 11:03:06;;;;;;;6.38;3.28;;;;;;;13.75;100.00;97625.84;5001628;28;20077;-44
2022/11/26 11:05:34;;;;;;;8.55;3.90;;;;;;;13.81;100.00;97614.69;5009529;28;20548;-42
2022/11/26 11:08:03;;;;;;;11.02;3.67;;;;;;;13.96;100.00;97621.28;5005901;28;20504;-46
2022/11/26 11:10:31;;;;;;;9.57;3.28;;;;;;;13.81;100.00;97616.50;5004775;28;20705;-44
2022/11/26 11:13:11;;;;;;;6.13;3.05;;;;;;;13.68;100.00;97619.41;5003155;28;20113;-49
2022/11/26 11:15:40;;;;;;;4.95;3.60;;;;;;;14.40;100.00;97616.41;5007368;28;20078;-44
2022/11/26 11:18:17;;;;;;;9.13;3.40;;;;;;;14.41;100.00;97609.28;4999084;28;20096;-50
2022/11/26 11:20:52;;;;;;;4.47;2.70;;;;;;;14.41;100.00;97607.47;5000965;28;20077;-47
2022/11/26 11:23:22;;;;;;;10.15;3.17;;;;;;;14.35;100.00;97602.75;5001548;28;20723;-44
2022/11/26 11:26:18;;;;;;;7.72;3.72;;;;;;;14.15;100.00;97601.06;5009936;28;20096;-48
2022/11/26 11:28:50;;;;;;;7.43;3.40;;;;;;;14.62;100.00;97598.53;4998160;28;20085;-49
2022/11/26 11:31:20;;;;;;;9.93;3.72;;;;;;;15.13;100.00;97594.66;4997652;28;20144;-46
2022/11/26 11:33:49;;;;;;;;;;;;;;;14.84;100.00;97590.28;5001952;28;20571;-46
2022/11/26 11:36:20;;;;;;;7.50;2.70;;;;;;;15.19;100.00;97602.88;5003414;28;19968;-50
2022/11/26 11:38:50;;;;;;;8.52;2.60;;;;;;;15.08;100.00;97596.94;5003927;28;20078;-46